createdAt,value
2023-02-12T00:00:08.436Z,2.00
2023-02-12T00:00:20.852Z,2.00
2023-02-12T00:00:32.629Z,1.90
2023-02-12T00:00:44.475Z,2.00
2023-02-12T00:00:56.212Z,1.90
2023-02-12T00:01:09.226Z,1.90
2023-02-12T00:01:21.464Z,1.90
2023-02-12T00:01:33.385Z,1.90
2023-02-12T00:01:45.193Z,1.90
2023-02-12T00:01:56.947Z,1.90
2023-02-12T00:02:08.741Z,2.00
2023-02-12T00:02:20.572Z,2.00
2023-02-12T00:02:32.374Z,1.90
2023-02-12T00:02:44.265Z,1.90
2023-02-12T00:02:56.101Z,1.90
2023-02-12T00:03:08.045Z,1.90
2023-02-12T00:03:19.952Z,1.90
2023-02-12T00:03:31.799Z,1.90
2023-02-12T00:03:43.675Z,1.90
2023-02-12T00:03:55.539Z,2.00
2023-02-12T00:04:07.351Z,2.00
2023-02-12T00:04:19.326Z,2.00
2023-02-12T00:04:31.105Z,2.00
2023-02-12T00:04:43.037Z,1.90
2023-02-12T00:04:54.728Z,1.90
2023-02-12T00:05:06.659Z,1.90
2023-02-12T00:05:18.431Z,1.90
2023-02-12T00:05:30.649Z,1.90
2023-02-12T00:05:42.471Z,1.90
2023-02-12T00:05:54.546Z,1.90
2023-02-12T00:06:07.472Z,1.90
2023-02-12T00:06:19.248Z,1.90
2023-02-12T00:06:31.120Z,1.90
2023-02-12T00:06:42.919Z,1.90
2023-02-12T00:06:54.682Z,2.00
2023-02-12T00:07:06.462Z,1.90
2023-02-12T00:07:18.159Z,1.90
2023-02-12T00:07:31.254Z,1.90
2023-02-12T00:07:43.112Z,1.90
2023-02-12T00:07:54.939Z,1.90
2023-02-12T00:08:06.792Z,1.90
2023-02-12T00:08:18.509Z,1.90
2023-02-12T00:08:30.239Z,1.90
2023-02-12T00:08:42.116Z,1.90
2023-02-12T00:08:54.916Z,2.00
2023-02-12T00:09:06.639Z,1.90
2023-02-12T00:09:18.418Z,1.90
2023-02-12T00:09:30.184Z,1.90
2023-02-12T00:09:42.037Z,1.90
2023-02-12T00:09:53.796Z,1.90
2023-02-12T00:10:06.053Z,2.00
2023-02-12T00:10:17.938Z,2.00
2023-02-12T00:10:29.688Z,2.00
2023-02-12T00:10:43.503Z,2.00
2023-02-12T00:10:55.435Z,2.00
2023-02-12T00:11:17.404Z,2.00
2023-02-12T00:11:29.635Z,2.00
2023-02-12T00:11:41.800Z,1.90
2023-02-12T00:11:53.520Z,1.90
2023-02-12T00:12:05.475Z,1.90
2023-02-12T00:12:17.248Z,1.90
2023-02-12T00:12:28.991Z,1.90
2023-02-12T00:12:40.794Z,1.90
2023-02-12T00:12:55.587Z,1.90
2023-02-12T00:13:07.380Z,1.90
2023-02-12T00:13:19.151Z,1.90
2023-02-12T00:13:31.296Z,1.90
2023-02-12T00:13:43.266Z,1.90
2023-02-12T00:13:55.328Z,1.90
2023-02-12T00:14:07.128Z,1.90
2023-02-12T00:14:18.873Z,1.90
2023-02-12T00:14:30.664Z,1.90
2023-02-12T00:14:42.471Z,1.90
2023-02-12T00:14:54.212Z,1.90
2023-02-12T00:15:06.272Z,1.90
2023-02-12T00:15:18.064Z,1.90
2023-02-12T00:15:29.894Z,1.90
2023-02-12T00:15:42.137Z,1.90
2023-02-12T00:15:54.512Z,1.90
2023-02-12T00:16:08.052Z,1.90
2023-02-12T00:16:22.148Z,1.90
2023-02-12T00:16:34.001Z,1.90
2023-02-12T00:16:45.783Z,1.90
2023-02-12T00:16:57.609Z,1.90
2023-02-12T00:17:09.375Z,1.80
2023-02-12T00:17:21.197Z,1.80
2023-02-12T00:17:33.054Z,1.80
2023-02-12T00:17:44.787Z,1.80
2023-02-12T00:17:56.975Z,1.80
2023-02-12T00:18:08.670Z,1.80
2023-02-12T00:18:20.412Z,1.80
2023-02-12T00:18:32.226Z,1.80
2023-02-12T00:18:44.372Z,1.80
2023-02-12T00:18:56.704Z,1.80
2023-02-12T00:19:09.012Z,1.80
2023-02-12T00:19:20.842Z,1.80
2023-02-12T00:19:32.580Z,1.80
2023-02-12T00:19:44.453Z,1.80
2023-02-12T00:19:56.208Z,1.80
2023-02-12T00:20:08.321Z,1.70
2023-02-12T00:20:20.071Z,1.70
2023-02-12T00:20:31.852Z,1.70
2023-02-12T00:20:43.651Z,1.70
2023-02-12T00:20:55.400Z,1.70
2023-02-12T00:21:09.027Z,1.70
2023-02-12T00:21:21.143Z,1.70
2023-02-12T00:23:52.674Z,1.70
2023-02-12T00:24:04.588Z,1.70
2023-02-12T00:24:16.322Z,1.70
2023-02-12T00:24:28.074Z,1.70
2023-02-12T00:24:39.859Z,1.70
2023-02-12T00:24:51.737Z,1.70
2023-02-12T00:25:04.418Z,1.70
2023-02-12T00:25:17.170Z,1.70
2023-02-12T00:25:28.896Z,1.70
2023-02-12T00:25:41.933Z,1.70
2023-02-12T00:25:54.077Z,1.70
2023-02-12T00:26:10.195Z,1.70
2023-02-12T00:26:22.254Z,1.70
2023-02-12T00:26:34.000Z,1.70
2023-02-12T00:26:45.760Z,1.70
2023-02-12T00:26:57.568Z,1.60
2023-02-12T00:27:09.430Z,1.60
2023-02-12T00:27:21.208Z,1.60
2023-02-12T00:27:33.567Z,1.60
2023-02-12T00:27:45.461Z,1.60
2023-02-12T00:27:57.319Z,1.60
2023-02-12T00:28:09.256Z,1.60
2023-02-12T00:28:21.256Z,1.60
2023-02-12T00:28:33.075Z,1.60
2023-02-12T00:28:45.073Z,1.60
2023-02-12T00:28:56.920Z,1.60
2023-02-12T00:29:10.394Z,1.60
2023-02-12T00:29:22.152Z,1.50
2023-02-12T00:29:33.940Z,1.60
2023-02-12T00:29:45.715Z,1.50
2023-02-12T00:29:57.460Z,1.50
2023-02-12T00:30:09.518Z,1.50
2023-02-12T00:30:21.551Z,1.50
2023-02-12T00:30:33.331Z,1.50
2023-02-12T00:30:45.151Z,1.50
2023-02-12T00:30:57.003Z,1.50
2023-02-12T00:31:11.112Z,1.50
2023-02-12T00:31:28.244Z,1.50
2023-02-12T00:31:40.178Z,1.50
2023-02-12T00:31:51.975Z,1.50
2023-02-12T00:32:03.757Z,1.50
2023-02-12T00:32:19.475Z,1.50
2023-02-12T00:32:31.244Z,1.50
2023-02-12T00:32:43.006Z,1.40
2023-02-12T00:32:54.754Z,1.40
2023-02-12T00:33:06.517Z,1.40
2023-02-12T00:33:18.383Z,1.40
2023-02-12T00:33:30.162Z,1.40
2023-02-12T00:33:41.923Z,1.40
2023-02-12T00:33:53.720Z,1.40
2023-02-12T00:34:05.667Z,1.40
2023-02-12T00:34:17.439Z,1.40
2023-02-12T00:34:29.227Z,1.40
2023-02-12T00:34:41.109Z,1.40
2023-02-12T00:34:52.924Z,1.40
2023-02-12T00:35:04.962Z,1.40
2023-02-12T00:35:16.838Z,1.40
2023-02-12T00:35:28.677Z,1.40
2023-02-12T00:35:40.476Z,1.40
2023-02-12T00:35:57.859Z,1.40
2023-02-12T00:36:10.006Z,1.40
2023-02-12T00:36:23.462Z,1.40
2023-02-12T00:36:35.228Z,1.40
2023-02-12T00:36:47.016Z,1.40
2023-02-12T00:36:58.796Z,1.40
2023-02-12T00:37:10.609Z,1.40
2023-02-12T00:37:22.332Z,1.40
2023-02-12T00:37:34.131Z,1.40
2023-02-12T00:37:45.861Z,1.40
2023-02-12T00:37:57.844Z,1.40
2023-02-12T00:38:09.598Z,1.40
2023-02-12T00:38:21.424Z,1.40
2023-02-12T00:38:33.262Z,1.50
2023-02-12T00:38:45.296Z,1.40
2023-02-12T00:38:57.468Z,1.50
2023-02-12T00:39:10.049Z,1.50
2023-02-12T00:39:21.764Z,1.40
2023-02-12T00:39:36.456Z,1.40
2023-02-12T00:39:48.145Z,1.40
2023-02-12T00:39:59.947Z,1.40
2023-02-12T00:40:12.120Z,1.40
2023-02-12T00:40:23.913Z,1.40
2023-02-12T00:40:35.638Z,1.40
2023-02-12T00:40:47.435Z,1.40
2023-02-12T00:40:59.150Z,1.40
2023-02-12T00:41:10.980Z,1.40
2023-02-12T00:41:22.895Z,1.40
2023-02-12T00:41:34.660Z,1.40
2023-02-12T00:41:46.407Z,1.40
2023-02-12T00:41:58.184Z,1.40
2023-02-12T00:42:09.935Z,1.40
2023-02-12T00:42:21.731Z,1.40
2023-02-12T00:42:33.467Z,1.40
2023-02-12T00:42:45.259Z,1.40
2023-02-12T00:42:57.022Z,1.40
2023-02-12T00:43:08.833Z,1.40
2023-02-12T00:43:20.650Z,1.40
2023-02-12T00:43:32.472Z,1.40
2023-02-12T00:43:44.229Z,1.40
2023-02-12T00:43:56.114Z,1.40
2023-02-12T00:44:07.915Z,1.40
2023-02-12T00:44:19.748Z,1.40
2023-02-12T00:44:31.465Z,1.40
2023-02-12T00:44:43.392Z,1.40
2023-02-12T00:44:55.065Z,1.40
2023-02-12T00:45:07.350Z,1.50
2023-02-12T00:45:19.224Z,1.40
2023-02-12T00:45:31.347Z,1.40
2023-02-12T00:45:45.146Z,1.40
2023-02-12T00:45:57.329Z,1.50
2023-02-12T00:46:09.528Z,1.40
2023-02-12T00:46:21.428Z,1.40
2023-02-12T00:46:33.297Z,1.40
2023-02-12T00:46:45.064Z,1.40
2023-02-12T00:46:57.255Z,1.40
2023-02-12T00:47:09.046Z,1.40
2023-02-12T00:47:20.775Z,1.40
2023-02-12T00:47:32.461Z,1.40
2023-02-12T00:47:44.292Z,1.40
2023-02-12T00:47:56.090Z,1.40
2023-02-12T00:48:07.879Z,1.40
2023-02-12T00:48:19.619Z,1.40
2023-02-12T00:48:31.398Z,1.40
2023-02-12T00:48:43.248Z,1.40
2023-02-12T00:48:54.934Z,1.40
2023-02-12T00:49:06.650Z,1.40
2023-02-12T00:49:20.444Z,1.40
2023-02-12T00:49:35.372Z,1.40
2023-02-12T00:49:47.068Z,1.40
2023-02-12T00:49:58.883Z,1.50
2023-02-12T00:50:11.112Z,1.40
2023-02-12T00:50:22.909Z,1.50
2023-02-12T00:50:34.710Z,1.50
2023-02-12T00:50:46.706Z,1.50
2023-02-12T00:50:58.475Z,1.50
2023-02-12T00:51:10.259Z,1.50
2023-02-12T00:51:22.104Z,1.50
2023-02-12T00:51:34.135Z,1.40
2023-02-12T00:51:46.488Z,1.40
2023-02-12T00:51:58.232Z,1.40
2023-02-12T00:52:10.082Z,1.40
2023-02-12T00:52:21.897Z,1.40
2023-02-12T00:52:33.607Z,1.50
2023-02-12T00:52:45.306Z,1.40
2023-02-12T00:52:58.656Z,1.50
2023-02-12T00:53:10.389Z,1.50
2023-02-12T00:53:22.246Z,1.50
2023-02-12T00:53:34.188Z,1.40
2023-02-12T00:53:45.932Z,1.40
2023-02-12T00:53:57.697Z,1.50
2023-02-12T00:54:09.471Z,1.40
2023-02-12T00:54:21.404Z,1.40
2023-02-12T00:54:33.175Z,1.40
2023-02-12T00:54:44.921Z,1.40
2023-02-12T00:54:56.668Z,1.40
2023-02-12T00:55:09.245Z,1.40
2023-02-12T00:55:21.053Z,1.40
2023-02-12T00:55:33.180Z,1.40
2023-02-12T00:55:45.242Z,1.50
2023-02-12T00:55:57.458Z,1.40
2023-02-12T00:56:09.372Z,1.40
2023-02-12T00:56:21.110Z,1.40
2023-02-12T00:56:32.815Z,1.40
2023-02-12T00:56:44.508Z,1.40
2023-02-12T00:56:56.847Z,1.40
2023-02-12T00:57:08.719Z,1.40
2023-02-12T00:57:20.475Z,1.40
2023-02-12T00:57:33.551Z,1.40
2023-02-12T00:57:45.401Z,1.40
2023-02-12T00:57:57.220Z,1.40
2023-02-12T00:58:09.201Z,1.40
2023-02-12T00:58:20.966Z,1.40
2023-02-12T00:58:32.856Z,1.30
2023-02-12T00:58:44.699Z,1.40
2023-02-12T00:58:56.480Z,1.40
2023-02-12T00:59:08.285Z,1.40
2023-02-12T00:59:22.567Z,1.40
2023-02-12T00:59:37.780Z,1.40
2023-02-12T00:59:49.568Z,1.40
2023-02-12T01:00:01.340Z,1.40
2023-02-12T01:00:14.166Z,1.30
2023-02-12T01:00:25.937Z,1.40
2023-02-12T01:00:37.680Z,1.40
2023-02-12T01:00:50.389Z,1.40
2023-02-12T01:01:02.212Z,1.40
2023-02-12T01:01:14.046Z,1.40
2023-02-12T01:01:25.837Z,1.30
2023-02-12T01:01:37.657Z,1.30
2023-02-12T01:01:49.816Z,1.40
2023-02-12T01:02:01.596Z,1.30
2023-02-12T01:02:13.327Z,1.30
2023-02-12T01:02:25.324Z,1.40
2023-02-12T01:02:37.077Z,1.30
2023-02-12T01:02:48.858Z,1.30
2023-02-12T01:03:00.575Z,1.30
2023-02-12T01:03:12.651Z,1.30
2023-02-12T01:03:24.618Z,1.30
2023-02-12T01:03:36.392Z,1.30
2023-02-12T01:03:48.185Z,1.30
2023-02-12T01:04:00.031Z,1.30
2023-02-12T01:04:12.993Z,1.30
2023-02-12T01:04:24.750Z,1.30
2023-02-12T01:04:36.464Z,1.30
2023-02-12T01:04:48.286Z,1.30
2023-02-12T01:05:00.217Z,1.30
2023-02-12T01:05:12.048Z,1.20
2023-02-12T01:05:23.912Z,1.20
2023-02-12T01:05:35.974Z,1.20
2023-02-12T01:05:47.797Z,1.20
2023-02-12T01:05:59.537Z,1.20
2023-02-12T01:06:11.299Z,1.20
2023-02-12T01:06:23.048Z,1.20
2023-02-12T01:06:34.977Z,1.20
2023-02-12T01:06:46.792Z,1.20
2023-02-12T01:06:58.551Z,1.20
2023-02-12T01:07:10.447Z,1.20
2023-02-12T01:07:22.304Z,1.20
2023-02-12T01:07:34.110Z,1.20
2023-02-12T01:07:52.480Z,1.20
2023-02-12T01:08:04.624Z,1.20
2023-02-12T01:08:16.503Z,1.20
2023-02-12T01:08:28.282Z,1.20
2023-02-12T01:08:40.138Z,1.20
2023-02-12T01:08:52.424Z,1.20
2023-02-12T01:09:04.222Z,1.20
2023-02-12T01:09:16.032Z,1.20
2023-02-12T01:09:27.830Z,1.20
2023-02-12T01:09:39.613Z,1.20
2023-02-12T01:09:51.497Z,1.20
2023-02-12T01:10:03.303Z,1.20
2023-02-12T01:10:15.032Z,1.20
2023-02-12T01:10:26.752Z,1.20
2023-02-12T01:10:38.437Z,1.20
2023-02-12T01:11:00.806Z,1.20
2023-02-12T01:11:12.832Z,1.20
2023-02-12T01:11:24.565Z,1.20
2023-02-12T01:11:36.484Z,1.20
2023-02-12T01:11:48.345Z,1.20
2023-02-12T01:12:00.164Z,1.20
2023-02-12T01:12:11.911Z,1.20
2023-02-12T01:12:23.612Z,1.20
2023-02-12T01:12:35.309Z,1.20
2023-02-12T01:12:47.659Z,1.20
2023-02-12T01:12:59.339Z,1.10
2023-02-12T01:13:14.834Z,1.10
2023-02-12T01:13:26.916Z,1.10
2023-02-12T01:13:38.658Z,1.10
2023-02-12T01:13:50.491Z,1.10
2023-02-12T01:14:02.289Z,1.10
2023-02-12T01:14:14.249Z,1.20
2023-02-12T01:14:25.978Z,1.10
2023-02-12T01:14:37.742Z,1.10
2023-02-12T01:14:49.486Z,1.10
2023-02-12T01:15:01.362Z,1.10
2023-02-12T01:15:13.511Z,1.10
2023-02-12T01:15:25.250Z,1.10
2023-02-12T01:15:37.194Z,1.10
2023-02-12T01:15:48.991Z,1.10
2023-02-12T01:16:10.732Z,1.10
2023-02-12T01:16:23.883Z,1.10
2023-02-12T01:16:36.567Z,1.10
2023-02-12T01:16:48.525Z,1.10
2023-02-12T01:17:00.261Z,1.10
2023-02-12T01:17:12.054Z,1.10
2023-02-12T01:17:23.869Z,1.10
2023-02-12T01:17:35.603Z,1.10
2023-02-12T01:17:47.432Z,1.10
2023-02-12T01:17:59.200Z,1.10
2023-02-12T01:18:11.347Z,1.10
2023-02-12T01:18:23.181Z,1.10
2023-02-12T01:18:35.929Z,1.20
2023-02-12T01:18:47.810Z,1.10
2023-02-12T01:18:59.615Z,1.20
2023-02-12T01:19:11.580Z,1.10
2023-02-12T01:19:23.399Z,1.20
2023-02-12T01:19:35.171Z,1.10
2023-02-12T01:19:46.994Z,1.10
2023-02-12T01:19:58.945Z,1.10
2023-02-12T01:20:17.396Z,1.10
2023-02-12T01:20:29.184Z,1.10
2023-02-12T01:20:41.014Z,1.10
2023-02-12T01:20:52.838Z,1.10
2023-02-12T01:21:39.871Z,1.10
2023-02-12T01:21:51.604Z,1.10
2023-02-12T01:22:03.408Z,1.10
2023-02-12T01:22:15.076Z,1.10
2023-02-12T01:22:26.894Z,1.10
2023-02-12T01:22:39.056Z,1.10
2023-02-12T01:22:51.002Z,1.10
2023-02-12T01:23:02.722Z,1.10
2023-02-12T01:23:14.410Z,1.10
2023-02-12T01:23:26.204Z,1.10
2023-02-12T01:23:37.974Z,1.00
2023-02-12T01:23:49.997Z,1.10
2023-02-12T01:24:02.201Z,1.00
2023-02-12T01:24:13.881Z,1.00
2023-02-12T01:24:25.555Z,1.00
2023-02-12T01:24:37.324Z,1.10
2023-02-12T01:24:49.125Z,1.10
2023-02-12T01:25:00.861Z,1.10
2023-02-12T01:25:12.859Z,1.10
2023-02-12T01:25:24.652Z,1.00
2023-02-12T01:25:38.300Z,1.00
2023-02-12T01:25:50.079Z,1.00
2023-02-12T01:26:01.870Z,1.10
2023-02-12T01:26:14.036Z,1.10
2023-02-12T01:26:26.060Z,1.10
2023-02-12T01:26:37.827Z,1.10
2023-02-12T01:26:49.648Z,1.10
2023-02-12T01:27:01.389Z,1.00
2023-02-12T01:27:13.278Z,1.10
2023-02-12T01:27:25.219Z,1.10
2023-02-12T01:27:36.934Z,1.10
2023-02-12T01:27:48.764Z,1.10
2023-02-12T01:28:00.534Z,1.10
2023-02-12T01:28:12.599Z,1.10
2023-02-12T01:28:24.497Z,1.10
2023-02-12T01:28:37.655Z,1.10
2023-02-12T01:28:59.219Z,1.10
2023-02-12T01:29:10.995Z,1.10
2023-02-12T01:29:22.724Z,1.10
2023-02-12T01:29:34.526Z,1.10
2023-02-12T01:29:46.324Z,1.10
2023-02-12T01:29:58.225Z,1.10
2023-02-12T01:30:12.305Z,1.10
2023-02-12T01:30:24.884Z,1.10
2023-02-12T01:30:36.655Z,1.10
2023-02-12T01:30:48.481Z,1.10
2023-02-12T01:31:00.450Z,1.10
2023-02-12T01:31:14.722Z,1.10
2023-02-12T01:31:28.341Z,1.10
2023-02-12T01:31:40.453Z,1.10
2023-02-12T01:31:52.386Z,1.10
2023-02-12T01:32:04.418Z,1.00
2023-02-12T01:32:16.377Z,1.10
2023-02-12T01:32:28.109Z,1.10
2023-02-12T01:32:39.881Z,1.10
2023-02-12T01:32:51.743Z,1.10
2023-02-12T01:33:03.655Z,1.10
2023-02-12T01:33:15.570Z,1.10
2023-02-12T01:33:27.564Z,1.10
2023-02-12T01:33:39.315Z,1.10
2023-02-12T01:33:52.279Z,1.10
2023-02-12T01:34:04.382Z,1.10
2023-02-12T01:34:16.533Z,1.10
2023-02-12T01:34:28.352Z,1.10
2023-02-12T01:34:40.073Z,1.10
2023-02-12T01:34:51.967Z,1.10
2023-02-12T01:35:03.883Z,1.10
2023-02-12T01:35:15.858Z,1.10
2023-02-12T01:35:27.719Z,1.10
2023-02-12T01:35:39.489Z,1.10
2023-02-12T01:35:51.268Z,1.10
2023-02-12T01:36:03.135Z,1.10
2023-02-12T01:36:14.932Z,1.10
2023-02-12T01:36:27.281Z,1.10
2023-02-12T01:36:39.212Z,1.10
2023-02-12T01:36:50.977Z,1.10
2023-02-12T01:37:02.769Z,1.10
2023-02-12T01:37:15.098Z,1.10
2023-02-12T01:37:26.860Z,1.00
2023-02-12T01:37:39.000Z,1.10
2023-02-12T01:37:50.772Z,1.00
2023-02-12T01:38:02.559Z,1.00
2023-02-12T01:38:14.276Z,1.00
2023-02-12T01:38:26.055Z,1.00
2023-02-12T01:38:37.746Z,1.00
2023-02-12T01:38:49.955Z,1.00
2023-02-12T01:39:03.060Z,1.00
2023-02-12T01:39:14.854Z,1.00
2023-02-12T01:39:26.618Z,1.00
2023-02-12T01:39:38.464Z,1.00
2023-02-12T01:39:50.243Z,1.00
2023-02-12T01:40:01.974Z,1.00
2023-02-12T01:40:15.052Z,1.00
2023-02-12T01:40:26.866Z,1.00
2023-02-12T01:40:38.731Z,1.00
2023-02-12T01:40:50.453Z,1.00
2023-02-12T01:41:09.640Z,1.00
2023-02-12T01:41:25.166Z,1.00
2023-02-12T01:41:39.769Z,1.00
2023-02-12T01:41:51.537Z,1.00
2023-02-12T01:42:04.017Z,0.90
2023-02-12T01:42:15.954Z,0.90
2023-02-12T01:42:27.798Z,0.90
2023-02-12T01:42:40.395Z,0.90
2023-02-12T01:42:52.250Z,0.90
2023-02-12T01:43:04.054Z,0.90
2023-02-12T01:43:15.813Z,0.90
2023-02-12T01:43:27.655Z,0.90
2023-02-12T01:43:39.644Z,0.90
2023-02-12T01:44:30.077Z,0.90
2023-02-12T01:44:46.331Z,0.90
2023-02-12T01:45:13.115Z,1.00
2023-02-12T01:45:36.674Z,1.00
2023-02-12T01:45:50.504Z,1.00
2023-02-12T01:46:02.928Z,1.00
2023-02-12T01:46:15.098Z,0.90
2023-02-12T01:46:26.949Z,0.90
2023-02-12T01:46:39.139Z,1.00
2023-02-12T01:46:56.027Z,1.00
2023-02-12T01:47:12.145Z,0.90
2023-02-12T01:47:23.877Z,1.00
2023-02-12T01:47:35.675Z,0.90
2023-02-12T01:47:47.433Z,1.00
2023-02-12T01:47:59.536Z,1.00
2023-02-12T01:48:12.811Z,1.00
2023-02-12T01:48:25.743Z,1.00
2023-02-12T01:48:44.861Z,1.00
2023-02-12T01:48:56.729Z,1.00
2023-02-12T01:49:15.123Z,0.90
2023-02-12T01:49:33.812Z,0.90
2023-02-12T01:49:47.278Z,0.90
2023-02-12T01:49:59.025Z,0.90
2023-02-12T01:50:16.285Z,0.90
2023-02-12T01:50:28.164Z,0.90
2023-02-12T01:50:40.048Z,0.90
2023-02-12T01:50:51.884Z,0.90
2023-02-12T01:51:04.060Z,0.80
2023-02-12T01:51:17.158Z,0.80
2023-02-12T01:51:28.933Z,0.90
2023-02-12T01:51:40.995Z,0.80
2023-02-12T01:51:56.483Z,0.90
2023-02-12T01:52:14.593Z,0.90
2023-02-12T01:52:31.062Z,0.80
2023-02-12T01:52:45.756Z,0.90
2023-02-12T01:52:57.570Z,0.80
2023-02-12T01:53:09.822Z,0.80
2023-02-12T01:53:22.182Z,0.80
2023-02-12T01:53:36.566Z,0.80
2023-02-12T01:53:50.638Z,0.80
2023-02-12T01:54:04.904Z,0.80
2023-02-12T01:54:17.155Z,0.90
2023-02-12T01:54:29.027Z,0.80
2023-02-12T01:54:40.959Z,0.80
2023-02-12T01:54:54.456Z,0.80
2023-02-12T01:55:08.362Z,0.80
2023-02-12T01:55:20.088Z,0.80
2023-02-12T01:55:31.901Z,0.80
2023-02-12T01:55:43.667Z,0.80
2023-02-12T01:55:57.767Z,0.80
2023-02-12T01:56:09.793Z,0.80
2023-02-12T01:56:21.762Z,0.80
2023-02-12T01:56:33.642Z,0.80
2023-02-12T01:56:45.541Z,0.80
2023-02-12T01:56:57.336Z,0.80
2023-02-12T01:57:10.153Z,0.80
2023-02-12T01:57:21.959Z,0.80
2023-02-12T01:57:34.812Z,0.80
2023-02-12T01:57:47.617Z,0.80
2023-02-12T01:57:59.459Z,0.80
2023-02-12T01:58:11.182Z,0.80
2023-02-12T01:58:23.178Z,0.80
2023-02-12T01:58:36.464Z,0.80
2023-02-12T01:58:48.178Z,0.80
2023-02-12T01:58:59.927Z,0.80
2023-02-12T01:59:11.750Z,0.80
2023-02-12T01:59:23.584Z,0.80
2023-02-12T01:59:35.537Z,0.80
2023-02-12T01:59:48.592Z,0.80
2023-02-12T02:00:00.748Z,0.80
2023-02-12T02:00:15.287Z,0.80
2023-02-12T02:00:27.220Z,0.80
2023-02-12T02:00:39.542Z,0.80
2023-02-12T02:00:51.251Z,0.80
2023-02-12T02:01:04.062Z,0.80
2023-02-12T02:01:21.031Z,0.80
2023-02-12T02:01:32.859Z,0.80
2023-02-12T02:01:44.854Z,0.80
2023-02-12T02:01:56.783Z,0.80
2023-02-12T02:02:08.633Z,0.80
2023-02-12T02:02:20.568Z,0.80
2023-02-12T02:02:32.465Z,0.80
2023-02-12T02:02:46.035Z,0.80
2023-02-12T02:02:58.636Z,0.80
2023-02-12T02:03:10.624Z,0.80
2023-02-12T02:03:22.515Z,0.80
2023-02-12T02:03:34.540Z,0.80
2023-02-12T02:03:48.846Z,0.80
2023-02-12T02:04:14.075Z,0.80
2023-02-12T02:04:30.887Z,0.80
2023-02-12T02:05:02.293Z,0.80
2023-02-12T02:05:15.710Z,0.80
2023-02-12T02:05:50.369Z,0.80
2023-02-12T02:06:16.570Z,0.80
2023-02-12T02:06:34.500Z,0.80
2023-02-12T02:06:59.890Z,0.80
2023-02-12T02:07:12.386Z,0.80
2023-02-12T02:07:24.209Z,0.80
2023-02-12T02:07:35.956Z,0.70
2023-02-12T02:07:47.714Z,0.70
2023-02-12T02:07:59.393Z,0.70
2023-02-12T02:08:11.294Z,0.70
2023-02-12T02:08:23.258Z,0.70
2023-02-12T02:08:35.015Z,0.70
2023-02-12T02:08:46.836Z,0.70
2023-02-12T02:08:58.578Z,0.70
2023-02-12T02:09:10.402Z,0.70
2023-02-12T02:09:22.223Z,0.70
2023-02-12T02:09:35.292Z,0.70
2023-02-12T02:09:47.093Z,0.70
2023-02-12T02:09:58.926Z,0.70
2023-02-12T02:10:10.935Z,0.60
2023-02-12T02:10:22.733Z,0.70
2023-02-12T02:10:34.488Z,0.70
2023-02-12T02:10:46.189Z,0.70
2023-02-12T02:10:58.001Z,0.60
2023-02-12T02:11:28.193Z,0.60
2023-02-12T02:11:58.622Z,0.60
2023-02-12T02:12:29.025Z,0.60
2023-02-12T02:12:59.391Z,0.60
2023-02-12T02:13:29.932Z,0.60
2023-02-12T02:14:00.126Z,0.60
2023-02-12T02:14:30.407Z,0.60
2023-02-12T02:14:42.241Z,0.60
2023-02-12T02:14:55.704Z,0.50
2023-02-12T02:15:09.079Z,0.60
2023-02-12T02:15:20.888Z,0.50
2023-02-12T02:15:32.613Z,0.60
2023-02-12T02:15:46.658Z,0.50
2023-02-12T02:16:00.218Z,0.50
2023-02-12T02:16:20.245Z,0.50
2023-02-12T02:16:32.160Z,0.50
2023-02-12T02:16:47.673Z,0.50
2023-02-12T02:17:20.359Z,0.50
2023-02-12T02:17:51.559Z,0.50
2023-02-12T02:18:32.828Z,0.50
2023-02-12T02:18:50.422Z,0.50
2023-02-12T02:19:03.575Z,0.50
2023-02-12T02:19:42.462Z,0.50
2023-02-12T02:20:31.412Z,0.50
2023-02-12T02:21:21.450Z,0.50
2023-02-12T02:21:45.172Z,0.50
2023-02-12T02:22:34.365Z,0.40
2023-02-12T02:23:03.960Z,0.40
2023-02-12T02:23:42.411Z,0.40
2023-02-12T02:24:29.389Z,0.40
2023-02-12T02:24:46.614Z,0.40
2023-02-12T02:25:15.237Z,0.40
2023-02-12T02:25:50.061Z,0.40
2023-02-12T02:26:14.062Z,0.40
2023-02-12T02:26:38.095Z,0.40
2023-02-12T02:27:34.911Z,0.40
2023-02-12T02:28:20.447Z,0.40
2023-02-12T02:29:09.234Z,0.40
2023-02-12T02:29:32.559Z,0.40
2023-02-12T02:30:08.784Z,0.40
2023-02-12T02:30:35.129Z,0.40
2023-02-12T02:30:58.326Z,0.40
2023-02-12T02:31:12.770Z,0.40
2023-02-12T02:31:31.685Z,0.40
2023-02-12T02:31:47.689Z,0.40
2023-02-12T02:32:05.275Z,0.40
2023-02-12T02:32:37.642Z,0.40
2023-02-12T02:33:13.988Z,0.40
2023-02-12T02:34:00.362Z,0.40
2023-02-12T02:35:12.877Z,0.40
2023-02-12T02:35:26.653Z,0.40
2023-02-12T02:35:49.403Z,0.40
2023-02-12T02:36:07.172Z,0.40
2023-02-12T02:37:00.181Z,0.50
2023-02-12T02:37:29.335Z,0.40
2023-02-12T02:37:48.523Z,0.40
2023-02-12T02:38:06.555Z,0.40
2023-02-12T02:38:24.371Z,0.50
2023-02-12T02:38:46.386Z,0.50
2023-02-12T02:39:05.409Z,0.40
2023-02-12T02:39:39.362Z,0.40
2023-02-12T02:40:00.375Z,0.40
2023-02-12T02:40:18.928Z,0.50
2023-02-12T02:40:38.723Z,0.40
2023-02-12T02:41:03.390Z,0.40
2023-02-12T02:41:20.027Z,0.50
2023-02-12T02:41:31.704Z,0.50
2023-02-12T02:41:51.224Z,0.50
2023-02-12T02:42:29.513Z,0.40
2023-02-12T02:42:44.893Z,0.50
2023-02-12T02:43:07.194Z,0.40
2023-02-12T02:43:22.593Z,0.50
2023-02-12T02:43:38.489Z,0.50
2023-02-12T02:43:51.084Z,0.50
2023-02-12T02:44:05.412Z,0.50
2023-02-12T02:44:19.432Z,0.50
2023-02-12T02:45:43.304Z,0.50
2023-02-12T02:46:20.923Z,0.50
2023-02-12T02:46:37.063Z,0.50
2023-02-12T02:46:50.019Z,0.50
2023-02-12T02:47:02.105Z,0.40
2023-02-12T02:47:14.304Z,0.40
2023-02-12T02:47:33.463Z,0.50
2023-02-12T02:47:51.477Z,0.50
2023-02-12T02:48:42.167Z,0.40
2023-02-12T02:48:56.941Z,0.40
2023-02-12T02:49:11.545Z,0.40
2023-02-12T02:49:25.478Z,0.40
2023-02-12T02:49:50.533Z,0.40
2023-02-12T02:50:17.192Z,0.40
2023-02-12T02:50:29.968Z,0.40
2023-02-12T02:50:44.418Z,0.40
2023-02-12T02:50:57.971Z,0.50
2023-02-12T02:51:14.092Z,0.40
2023-02-12T02:51:42.510Z,0.40
2023-02-12T02:51:57.403Z,0.40
2023-02-12T02:52:11.630Z,0.40
2023-02-12T02:52:30.788Z,0.40
2023-02-12T02:52:49.358Z,0.40
2023-02-12T02:53:06.479Z,0.40
2023-02-12T02:53:23.635Z,0.40
2023-02-12T02:53:42.745Z,0.40
2023-02-12T02:54:02.746Z,0.40
2023-02-12T02:54:21.518Z,0.40
2023-02-12T02:54:54.762Z,0.40
2023-02-12T02:55:08.649Z,0.40
2023-02-12T02:55:21.240Z,0.40
2023-02-12T02:55:37.371Z,0.40
2023-02-12T02:55:51.322Z,0.40
2023-02-12T02:56:03.888Z,0.40
2023-02-12T02:56:16.887Z,0.30
2023-02-12T02:56:28.585Z,0.30
2023-02-12T02:56:41.839Z,0.40
2023-02-12T02:56:56.452Z,0.40
2023-02-12T02:57:29.936Z,0.30
2023-02-12T02:57:45.825Z,0.30
2023-02-12T02:57:59.640Z,0.30
2023-02-12T02:58:20.929Z,0.30
2023-02-12T02:58:48.677Z,0.30
2023-02-12T02:59:05.990Z,0.30
2023-02-12T02:59:23.891Z,0.30
2023-02-12T02:59:38.443Z,0.30
2023-02-12T02:59:54.280Z,0.30
2023-02-12T03:00:15.828Z,0.30
2023-02-12T03:01:18.159Z,0.30
2023-02-12T03:01:32.887Z,0.30
2023-02-12T03:01:57.102Z,0.40
2023-02-12T03:02:31.857Z,0.40
2023-02-12T03:02:47.184Z,0.40
2023-02-12T03:03:02.346Z,0.40
2023-02-12T03:03:50.492Z,0.40
2023-02-12T03:04:07.185Z,0.40
2023-02-12T03:04:36.254Z,0.40
2023-02-12T03:05:51.856Z,0.40
2023-02-12T03:06:07.739Z,0.40
2023-02-12T03:06:56.651Z,0.40
2023-02-12T03:07:45.403Z,0.40
2023-02-12T03:08:05.921Z,0.40
2023-02-12T03:08:24.199Z,0.40
2023-02-12T03:08:49.714Z,0.30
2023-02-12T03:09:43.620Z,0.30
2023-02-12T03:10:01.066Z,0.30
2023-02-12T03:10:23.805Z,0.30
2023-02-12T03:10:38.431Z,0.30
2023-02-12T03:10:53.236Z,0.30
2023-02-12T03:11:12.073Z,0.30
2023-02-12T03:11:28.464Z,0.30
2023-02-12T03:11:40.195Z,0.30
2023-02-12T03:11:52.552Z,0.30
2023-02-12T03:12:09.614Z,0.30
2023-02-12T03:13:06.460Z,0.30
2023-02-12T03:13:29.731Z,0.30
2023-02-12T03:13:45.462Z,0.40
2023-02-12T03:13:59.296Z,0.40
2023-02-12T03:14:20.534Z,0.40
2023-02-12T03:14:38.439Z,0.40
2023-02-12T03:15:11.897Z,0.40
2023-02-12T03:15:44.481Z,0.40
2023-02-12T03:16:08.789Z,0.40
2023-02-12T03:16:23.212Z,0.40
2023-02-12T03:16:45.546Z,0.40
2023-02-12T03:17:02.770Z,0.40
2023-02-12T03:17:19.675Z,0.40
2023-02-12T03:17:32.919Z,0.40
2023-02-12T03:17:45.555Z,0.40
2023-02-12T03:17:57.384Z,0.40
2023-02-12T03:18:12.903Z,0.40
2023-02-12T03:18:27.205Z,0.40
2023-02-12T03:19:03.483Z,0.40
2023-02-12T03:19:20.470Z,0.40
2023-02-12T03:20:08.306Z,0.40
2023-02-12T03:20:21.430Z,0.40
2023-02-12T03:20:39.482Z,0.40
2023-02-12T03:20:54.168Z,0.40
2023-02-12T03:21:11.040Z,0.40
2023-02-12T03:21:31.444Z,0.40
2023-02-12T03:21:48.576Z,0.40
2023-02-12T03:22:21.009Z,0.40
2023-02-12T03:22:34.584Z,0.40
2023-02-12T03:23:16.850Z,0.40
2023-02-12T03:23:38.614Z,0.40
2023-02-12T03:23:58.255Z,0.40
2023-02-12T03:24:22.460Z,0.40
2023-02-12T03:24:44.941Z,0.40
2023-02-12T03:25:15.068Z,0.40
2023-02-12T03:25:30.949Z,0.30